Time;durP1;ratioP1;P1;durP2;ratioP2;P2;SDS_P1;SDS_P2;PMS_P1;PMS_P2;Temp;Humidity;BMP_temperature;BMP_pressure;BME280_temperature;BME280_humidity;BME280_pressure;Samples;Min_cycle;Max_cycle;Signal;HPM_P1;HPM_P2
2023/10/27 00:01:45;;;;;;;11.00;8.30;;;;;;;14.54;82.82;98750.50;107892;1258;72493;-74
2023/10/27 00:04:12;;;;;;;10.00;8.90;;;;;;;14.53;82.64;98749.61;107757;1257;61787;-72
2023/10/27 00:06:39;;;;;;;12.50;9.70;;;;;;;14.52;82.47;98752.48;107777;1258;60530;-72
2023/10/27 00:09:06;;;;;;;10.90;9.30;;;;;;;14.52;82.57;98752.27;107752;1258;73702;-73
2023/10/27 00:11:35;;;;;;;11.90;9.10;;;;;;;14.51;82.64;98748.75;107961;1259;71504;-73
2023/10/27 00:14:03;;;;;;;11.20;8.80;;;;;;;14.49;82.66;98748.14;107862;1258;72573;-72
2023/10/27 00:16:30;;;;;;;10.50;8.90;;;;;;;14.48;82.60;98747.02;107933;1257;61760;-74
2023/10/27 00:18:57;;;;;;;10.60;8.20;;;;;;;14.48;82.78;98748.88;107925;1257;60219;-74
2023/10/27 00:21:23;;;;;;;10.90;8.60;;;;;;;14.47;82.79;98742.47;107884;1259;73673;-73
2023/10/27 00:23:50;;;;;;;10.70;8.60;;;;;;;14.48;82.91;98744.86;107814;1262;72868;-73
2023/10/27 00:26:17;;;;;;;10.70;8.50;;;;;;;14.46;83.05;98745.18;107843;1257;72626;-73
2023/10/27 00:28:46;;;;;;;9.70;8.40;;;;;;;14.25;83.68;98751.13;107526;1260;249583;-73
2023/10/27 00:31:13;;;;;;;11.70;9.00;;;;;;;14.33;83.74;98757.66;107858;1258;60454;-73
2023/10/27 00:33:40;;;;;;;9.30;7.70;;;;;;;14.35;83.51;98759.70;107852;1258;73798;-73
2023/10/27 00:36:07;;;;;;;10.30;8.80;;;;;;;14.31;83.47;98759.80;107911;1258;72782;-74
2023/10/27 00:38:34;;;;;;;9.10;7.90;;;;;;;14.25;83.61;98756.73;107917;1258;72788;-72
2023/10/27 00:41:00;;;;;;;9.90;8.30;;;;;;;14.21;83.74;98755.51;107897;1259;62134;-74
2023/10/27 00:43:27;;;;;;;10.80;7.80;;;;;;;14.19;83.73;98753.13;107990;1258;60288;-74
2023/10/27 00:45:54;;;;;;;8.80;7.70;;;;;;;14.16;83.78;98749.86;107873;1257;73744;-73
2023/10/27 00:48:21;;;;;;;8.90;7.20;;;;;;;14.12;83.81;98753.17;107935;1262;71567;-73
2023/10/27 00:50:49;;;;;;;10.80;7.70;;;;;;;14.08;83.90;98751.58;107909;1262;71171;-73
2023/10/27 00:53:19;;;;;;;9.70;8.00;;;;;;;14.06;84.10;98750.80;107885;1261;61001;-73
2023/10/27 00:55:47;;;;;;;10.60;7.50;;;;;;;14.04;84.25;98746.41;107835;1258;60354;-73
2023/10/27 00:58:14;;;;;;;9.20;7.50;;;;;;;14.03;84.45;98744.23;107824;1262;73957;-74
2023/10/27 01:00:41;;;;;;;10.30;7.70;;;;;;;14.04;84.59;98742.57;107820;1262;71260;-73
2023/10/27 01:03:08;;;;;;;9.20;7.10;;;;;;;14.05;84.64;98740.45;107757;1257;72525;-73
2023/10/27 01:05:36;;;;;;;8.80;7.10;;;;;;;14.03;84.75;98738.94;107797;1258;61723;-73
2023/10/27 01:08:03;;;;;;;8.70;7.20;;;;;;;14.02;84.83;98746.98;107845;1261;60466;-73
2023/10/27 01:10:30;;;;;;;8.80;6.90;;;;;;;14.04;84.75;98748.35;107752;1262;73686;-73
2023/10/27 01:12:57;;;;;;;9.60;7.40;;;;;;;13.98;84.87;98747.08;107843;1260;72803;-73
2023/10/27 01:15:24;;;;;;;9.90;7.30;;;;;;;13.95;84.90;98748.27;107879;1257;72370;-74
2023/10/27 01:17:51;;;;;;;11.10;7.00;;;;;;;13.93;84.98;98747.48;107790;1257;62107;-73
2023/10/27 01:20:18;;;;;;;9.70;7.30;;;;;;;13.95;84.99;98748.21;107998;1256;60371;-72
2023/10/27 01:22:46;;;;;;;8.40;6.90;;;;;;;13.97;84.86;98748.27;108018;1260;72967;-73
2023/10/27 01:25:14;;;;;;;9.40;7.10;;;;;;;13.99;84.77;98749.35;107915;1260;72638;-74
2023/10/27 01:27:41;;;;;;;10.80;7.40;;;;;;;14.00;84.63;98747.10;107745;1262;73149;-74
2023/10/27 01:30:08;;;;;;;9.30;6.90;;;;;;;13.98;84.65;98747.71;107831;1257;60549;-72
2023/10/27 01:32:36;;;;;;;8.60;7.50;;;;;;;13.94;84.60;98746.63;107935;1260;60361;-73
2023/10/27 01:35:03;;;;;;;9.60;7.10;;;;;;;13.92;84.59;98749.44;107912;1257;73926;-73
2023/10/27 01:37:30;;;;;;;9.80;6.80;;;;;;;13.90;84.68;98749.91;107964;1260;72750;-73
2023/10/27 01:39:57;;;;;;;8.40;6.80;;;;;;;13.88;84.85;98753.38;107921;1257;71220;-73
2023/10/27 01:42:24;;;;;;;9.90;6.70;;;;;;;13.88;84.88;98755.52;107855;1258;61807;-73
2023/10/27 01:44:53;;;;;;;8.90;7.10;;;;;;;13.89;85.01;98757.86;107729;1257;60412;-73
2023/10/27 01:47:20;;;;;;;8.40;6.30;;;;;;;13.88;84.99;98759.34;107896;1257;73924;-74
2023/10/27 01:49:46;;;;;;;9.20;6.20;;;;;;;13.84;84.86;98756.83;107869;1262;72436;-74
2023/10/27 01:52:17;;;;;;;9.30;6.50;;;;;;;13.81;84.66;98756.19;108025;1257;72577;-74
2023/10/27 01:54:45;;;;;;;8.80;6.40;;;;;;;13.75;84.61;98762.36;107668;1258;61741;-74
2023/10/27 01:57:11;;;;;;;8.80;6.30;;;;;;;13.69;84.48;98760.43;108012;1257;60542;-74
2023/10/27 01:59:38;;;;;;;8.80;7.20;;;;;;;13.62;84.56;98759.76;107684;1260;73385;-73
2023/10/27 02:02:05;;;;;;;9.70;6.90;;;;;;;13.58;84.68;98761.29;107677;1263;70265;-73
2023/10/27 02:04:35;;;;;;;9.30;6.70;;;;;;;13.50;84.68;98764.54;107797;1257;72710;-74
2023/10/27 02:07:03;;;;;;;9.80;6.80;;;;;;;13.44;84.93;98765.90;107868;1257;61856;-72
2023/10/27 02:09:30;;;;;;;9.50;6.90;;;;;;;13.45;84.86;98762.43;107951;1256;60309;-74
2023/10/27 02:11:57;;;;;;;9.20;6.10;;;;;;;13.64;84.37;98761.92;107844;1258;73645;-72
2023/10/27 02:14:27;;;;;;;9.30;6.70;;;;;;;13.53;83.93;98757.77;107919;1261;73128;-75
2023/10/27 02:16:54;;;;;;;7.70;6.40;;;;;;;13.26;84.73;98760.48;107793;1257;74140;-72
2023/10/27 02:19:21;;;;;;;10.20;6.80;;;;;;;13.20;85.25;98761.79;107863;1257;61747;-72
2023/10/27 02:21:48;;;;;;;8.30;6.20;;;;;;;13.15;85.58;98765.95;108043;1257;60335;-73
2023/10/27 02:24:16;;;;;;;8.40;6.70;;;;;;;13.10;85.73;98764.45;107852;1257;72276;-73
2023/10/27 02:26:42;;;;;;;7.80;6.60;;;;;;;13.04;86.10;98763.95;107845;1257;72554;-70
2023/10/27 02:29:09;;;;;;;8.90;6.20;;;;;;;13.01;86.36;98768.42;107847;1257;72501;-72
2023/10/27 02:31:36;;;;;;;9.10;6.70;;;;;;;12.98;86.46;98770.44;107740;1262;62144;-72
2023/10/27 02:34:03;;;;;;;8.30;6.50;;;;;;;12.94;86.53;98764.21;107996;1261;61134;-72
2023/10/27 02:36:31;;;;;;;9.20;6.60;;;;;;;12.91;86.64;98761.55;107966;1257;73728;-72
2023/10/27 02:38:57;;;;;;;9.10;6.60;;;;;;;12.88;86.67;98759.67;107774;1258;71547;-72
2023/10/27 02:41:24;;;;;;;9.50;6.60;;;;;;;12.84;86.52;98761.50;107880;1256;72501;-72
2023/10/27 02:43:51;;;;;;;9.10;5.80;;;;;;;12.81;86.70;98764.80;107724;1258;62335;-70
2023/10/27 02:46:18;;;;;;;8.00;6.40;;;;;;;12.78;86.80;98770.55;107868;1257;60477;-74
2023/10/27 02:48:44;;;;;;;8.70;6.70;;;;;;;12.74;86.87;98773.60;107911;1257;73710;-73
2023/10/27 02:51:12;;;;;;;8.90;6.50;;;;;;;12.72;87.05;98779.61;107803;1257;72581;-73
2023/10/27 02:53:40;;;;;;;8.80;7.00;;;;;;;12.70;87.12;98781.50;107928;1257;72273;-72
2023/10/27 02:56:10;;;;;;;8.20;6.40;;;;;;;12.66;87.16;98783.59;107942;1260;61781;-73
2023/10/27 02:58:37;;;;;;;10.20;7.40;;;;;;;12.63;87.10;98786.41;107943;1256;60553;-72
2023/10/27 03:01:10;;;;;;;9.70;7.40;;;;;;;12.60;87.19;98789.49;108116;1257;72320;-73
2023/10/27 03:03:41;;;;;;;9.40;6.60;;;;;;;12.57;87.24;98782.78;107916;1257;73020;-73
2023/10/27 03:06:08;;;;;;;7.40;6.20;;;;;;;12.55;87.23;98783.52;107686;1263;72510;-74
2023/10/27 03:08:34;;;;;;;8.70;6.90;;;;;;;12.51;87.16;98785.31;107925;1256;61903;-72
2023/10/27 03:11:01;;;;;;;9.50;7.10;;;;;;;12.44;87.10;98780.65;107994;1257;60453;-73
2023/10/27 03:13:29;;;;;;;8.30;6.40;;;;;;;12.39;87.03;98784.70;107890;1257;73587;-73
2023/10/27 03:16:00;;;;;;;10.40;7.10;;;;;;;12.36;87.11;98785.11;108019;1260;71616;-73
2023/10/27 03:18:27;;;;;;;8.40;6.30;;;;;;;12.34;87.04;98791.50;108037;1258;72497;-73
2023/10/27 03:20:55;;;;;;;8.30;6.90;;;;;;;12.30;87.02;98790.73;107881;1260;61731;-74
2023/10/27 03:23:23;;;;;;;10.00;7.20;;;;;;;12.28;87.24;98790.31;107894;1257;60451;-73
2023/10/27 03:25:50;;;;;;;10.80;7.70;;;;;;;12.28;87.65;98792.96;108065;1257;72495;-72
2023/10/27 03:28:17;;;;;;;9.50;7.20;;;;;;;12.28;87.84;98792.74;107953;1260;72930;-73
2023/10/27 03:30:44;;;;;;;8.90;7.50;;;;;;;12.28;87.96;98793.81;107888;1257;72360;-74
2023/10/27 03:33:11;;;;;;;10.80;7.90;;;;;;;12.29;88.21;98795.17;107821;1257;60428;-72
2023/10/27 03:35:42;;;;;;;8.90;7.20;;;;;;;12.30;88.49;98796.90;107818;1258;59576;-73
2023/10/27 03:38:12;;;;;;;10.50;7.60;;;;;;;12.32;88.71;98797.67;107986;1258;73651;-72
2023/10/27 03:40:41;;;;;;;9.10;7.20;;;;;;;12.29;88.91;98795.17;107792;1257;70822;-72
2023/10/27 03:43:09;;;;;;;9.10;7.50;;;;;;;12.28;88.87;98793.73;107876;1261;72607;-73
2023/10/27 03:45:36;;;;;;;9.30;6.90;;;;;;;12.25;88.90;98789.78;107796;1257;61863;-72
2023/10/27 03:48:03;;;;;;;7.70;6.70;;;;;;;12.22;88.88;98791.24;108126;1257;60194;-72
2023/10/27 03:50:30;;;;;;;9.50;7.10;;;;;;;12.20;88.92;98794.52;107892;1258;73689;-71
2023/10/27 03:52:58;;;;;;;8.60;7.00;;;;;;;12.18;89.00;98798.33;107858;1257;72817;-72
2023/10/27 03:55:25;;;;;;;8.60;7.20;;;;;;;12.17;89.22;98799.14;107834;1258;72391;-73
2023/10/27 03:57:52;;;;;;;8.40;7.10;;;;;;;12.16;89.35;98800.51;107779;1257;61715;-72
2023/10/27 04:00:19;;;;;;;9.60;7.90;;;;;;;12.13;89.49;98797.16;107771;1257;60457;-72
2023/10/27 04:02:46;;;;;;;8.80;7.10;;;;;;;12.10;89.47;98792.61;107657;1257;74060;-73
2023/10/27 04:05:13;;;;;;;11.40;7.80;;;;;;;12.07;89.61;98787.64;107829;1257;72571;-73
2023/10/27 04:07:40;;;;;;;10.90;7.10;;;;;;;12.05;89.66;98781.13;107836;1257;71234;-72
2023/10/27 04:10:07;;;;;;;10.10;8.00;;;;;;;12.04;89.75;98776.27;107834;1257;60555;-73
2023/10/27 04:12:34;;;;;;;11.60;7.50;;;;;;;12.04;89.82;98780.08;107726;1257;60400;-73
2023/10/27 04:15:01;;;;;;;8.80;7.20;;;;;;;12.03;89.70;98786.15;107815;1257;73770;-74
2023/10/27 04:17:28;;;;;;;10.50;7.90;;;;;;;12.01;89.66;98788.46;107972;1257;72851;-73
2023/10/27 04:19:55;;;;;;;11.30;8.50;;;;;;;11.99;89.61;98785.66;107868;1257;72853;-73
2023/10/27 04:22:22;;;;;;;9.00;7.70;;;;;;;11.98;89.70;98789.11;107807;1257;61785;-72
2023/10/27 04:24:48;;;;;;;9.10;7.20;;;;;;;11.97;89.56;98799.78;108087;1257;60434;-71
2023/10/27 04:27:16;;;;;;;9.40;7.70;;;;;;;11.93;89.49;98796.31;107836;1257;72752;-72
2023/10/27 04:29:42;;;;;;;10.90;8.50;;;;;;;11.90;89.59;98796.52;107825;1257;72334;-73
2023/10/27 04:32:09;;;;;;;10.70;8.00;;;;;;;11.88;89.55;98793.40;107743;1257;72923;-72
2023/10/27 04:34:36;;;;;;;11.90;8.50;;;;;;;11.87;89.63;98793.41;107820;1257;60714;-72
2023/10/27 04:37:03;;;;;;;11.50;8.20;;;;;;;11.86;89.52;98790.02;107829;1257;60371;-73
2023/10/27 04:39:30;;;;;;;10.60;8.00;;;;;;;11.87;89.35;98794.23;107816;1257;73800;-71
2023/10/27 04:41:57;;;;;;;8.90;7.50;;;;;;;11.84;89.22;98795.63;107711;1257;72759;-72
2023/10/27 04:44:25;;;;;;;8.50;7.30;;;;;;;11.80;88.97;98795.88;107755;1257;71218;-73
2023/10/27 04:47:03;;;;;;;12.00;7.60;;;;;;;11.75;88.81;98800.76;107933;1257;61784;-72
2023/10/27 04:49:30;;;;;;;8.30;7.00;;;;;;;11.69;88.53;98799.84;107949;1257;60760;-71
2023/10/27 04:51:59;;;;;;;9.20;6.80;;;;;;;11.64;88.20;98798.70;107909;1257;72410;-72
2023/10/27 04:54:34;;;;;;;7.60;5.80;;;;;;;11.60;88.08;98795.73;107845;1257;71457;-73
2023/10/27 04:57:14;;;;;;;7.50;5.50;;;;;;;11.52;87.72;98793.34;107911;1256;72675;-72
2023/10/27 04:59:43;;;;;;;6.90;5.00;;;;;;;11.44;87.59;98794.29;107910;1257;63065;-73
2023/10/27 05:02:18;;;;;;;6.40;4.90;;;;;;;11.36;87.38;98795.60;107924;1257;61130;-73
2023/10/27 05:04:52;;;;;;;5.80;4.40;;;;;;;11.25;87.09;98800.88;108000;1257;73923;-71
2023/10/27 05:07:28;;;;;;;7.80;4.80;;;;;;;11.19;86.88;98804.50;107895;1256;72962;-73
2023/10/27 05:10:08;;;;;;;6.70;5.00;;;;;;;11.16;86.92;98802.73;107964;1257;72675;-72
2023/10/27 05:12:48;;;;;;;5.10;3.80;;;;;;;11.14;86.97;98802.40;108032;1260;60416;-73
2023/10/27 05:15:21;;;;;;;6.30;4.60;;;;;;;11.12;86.92;98805.90;107885;1256;60450;-72
2023/10/27 05:17:53;;;;;;;5.60;4.50;;;;;;;11.10;86.79;98811.90;107945;1257;72390;-73
2023/10/27 05:20:28;;;;;;;5.90;3.80;;;;;;;11.07;86.72;98813.14;107831;1257;73859;-73
2023/10/27 05:23:01;;;;;;;5.90;4.30;;;;;;;11.06;86.78;98810.42;107610;1263;72785;-72
2023/10/27 05:25:35;;;;;;;7.80;5.70;;;;;;;11.04;86.81;98812.13;107692;1257;60520;-72
2023/10/27 05:28:08;;;;;;;6.40;5.30;;;;;;;11.04;86.83;98807.26;107850;1256;60308;-73
2023/10/27 05:30:43;;;;;;;;;;;;;;;11.06;87.11;98808.19;107912;1257;72789;-73
2023/10/27 05:33:19;;;;;;;7.30;5.90;;;;;;;11.06;87.09;98812.15;107855;1257;72658;-72
2023/10/27 05:35:54;;;;;;;8.90;6.20;;;;;;;11.04;87.26;98817.95;107770;1257;73985;-73
2023/10/27 05:38:36;;;;;;;10.10;7.50;;;;;;;11.06;87.67;98820.20;107846;1257;61809;-73
2023/10/27 05:41:14;;;;;;;11.00;7.20;;;;;;;11.12;88.00;98825.98;107847;1257;60420;-72
2023/10/27 05:43:50;;;;;;;;;;;;;;;11.20;88.57;98829.91;107857;1258;72683;-72
2023/10/27 05:46:28;;;;;;;11.20;8.30;;;;;;;11.30;88.86;98827.54;107967;1257;72098;-73
2023/10/27 05:49:07;;;;;;;9.80;7.40;;;;;;;11.43;89.38;98830.67;107853;1257;73658;-72
2023/10/27 05:51:37;;;;;;;9.90;8.10;;;;;;;11.57;89.81;98839.20;107906;1257;61861;-74
2023/10/27 05:54:10;;;;;;;10.40;7.80;;;;;;;11.70;90.25;98847.37;108075;1257;60217;-72
2023/10/27 05:56:44;;;;;;;9.40;8.00;;;;;;;11.88;90.50;98840.75;107899;1257;73220;-72
2023/10/27 05:59:40;;;;;;;9.80;7.90;;;;;;;12.02;90.66;98835.69;107806;1257;71737;-73
2023/10/27 06:02:32;;;;;;;10.80;8.40;;;;;;;12.12;91.02;98842.16;107713;1257;72941;-73
2023/10/27 06:05:07;;;;;;;10.30;7.90;;;;;;;12.23;91.33;98840.16;107809;1257;61804;-72
2023/10/27 06:07:44;;;;;;;8.10;7.10;;;;;;;12.35;91.59;98838.59;107842;1257;60172;-72
2023/10/27 06:10:12;;;;;;;9.60;7.60;;;;;;;12.48;91.75;98837.80;107792;1257;74933;-72
2023/10/27 06:12:43;;;;;;;9.90;8.20;;;;;;;12.59;91.83;98843.25;107807;1256;72289;-72
2023/10/27 06:15:10;;;;;;;13.10;8.60;;;;;;;12.73;92.01;98840.50;107797;1257;72674;-73
2023/10/27 06:17:37;;;;;;;9.80;7.70;;;;;;;12.86;91.88;98838.77;107885;1257;61575;-73
2023/10/27 06:20:04;;;;;;;9.40;7.70;;;;;;;12.97;92.06;98838.30;107907;1256;60321;-74
2023/10/27 06:22:44;;;;;;;9.10;7.10;;;;;;;13.06;91.97;98842.52;107948;1256;73434;-74
2023/10/27 06:25:11;;;;;;;10.50;8.00;;;;;;;13.14;92.04;98843.73;107938;1256;72781;-72
2023/10/27 06:27:39;;;;;;;9.50;7.70;;;;;;;13.24;92.11;98847.49;107894;1257;72539;-74
2023/10/27 06:30:07;;;;;;;10.60;7.20;;;;;;;13.35;92.13;98849.36;107851;1257;62618;-73
2023/10/27 06:32:34;;;;;;;8.00;6.80;;;;;;;13.45;92.13;98847.27;107684;1257;60148;-74
2023/10/27 06:35:01;;;;;;;10.20;6.80;;;;;;;13.54;92.09;98843.98;107822;1257;74674;-74
2023/10/27 06:37:28;;;;;;;8.90;6.50;;;;;;;13.63;92.11;98842.58;107834;1257;72454;-73
2023/10/27 06:39:58;;;;;;;8.60;7.00;;;;;;;13.70;91.98;98850.29;107816;1257;71692;-73
2023/10/27 06:42:25;;;;;;;9.10;6.60;;;;;;;13.74;91.78;98853.23;107817;1257;62001;-74
2023/10/27 06:44:52;;;;;;;10.50;7.30;;;;;;;13.76;91.55;98849.33;107834;1257;61124;-74
2023/10/27 06:47:19;;;;;;;9.40;6.90;;;;;;;13.78;91.35;98853.58;107807;1257;73254;-74
2023/10/27 06:49:49;;;;;;;7.50;5.90;;;;;;;13.84;91.13;98855.03;107824;1257;71267;-75
2023/10/27 06:52:16;;;;;;;8.40;6.30;;;;;;;13.90;91.06;98856.11;107833;1257;71542;-72
2023/10/27 06:54:43;;;;;;;7.90;6.00;;;;;;;13.99;90.99;98851.83;107892;1257;60795;-73
2023/10/27 06:57:10;;;;;;;9.00;6.30;;;;;;;14.10;90.97;98848.66;107874;1257;61164;-76
2023/10/27 06:59:37;;;;;;;7.60;6.10;;;;;;;14.24;90.99;98854.53;107793;1257;74636;-74
2023/10/27 07:02:04;;;;;;;9.00;6.60;;;;;;;14.40;91.06;98854.16;107847;1257;73200;-74
2023/10/27 07:04:31;;;;;;;6.50;5.40;;;;;;;14.50;90.80;98857.13;107813;1257;72465;-73
2023/10/27 07:06:58;;;;;;;8.60;6.10;;;;;;;14.58;90.30;98848.65;107829;1257;61634;-74
2023/10/27 07:09:26;;;;;;;8.10;5.90;;;;;;;14.64;89.99;98852.60;107817;1259;61124;-74
2023/10/27 07:11:53;;;;;;;6.50;5.10;;;;;;;14.71;89.61;98853.95;107727;1260;74814;-72
2023/10/27 07:14:19;;;;;;;8.10;5.70;;;;;;;14.79;89.24;98853.55;107771;1257;72528;-74
2023/10/27 07:16:51;;;;;;;6.50;5.40;;;;;;;14.86;88.54;98853.88;107705;1257;72414;-73
2023/10/27 07:19:19;;;;;;;;;;;;;;;14.87;87.43;98855.30;107709;1259;61140;-74
2023/10/27 07:21:48;;;;;;;6.60;5.30;;;;;;;14.88;86.91;98848.03;107727;1259;61270;-75
2023/10/27 07:24:15;;;;;;;7.50;6.20;;;;;;;14.95;86.60;98847.75;107832;1257;74494;-74
2023/10/27 07:26:42;;;;;;;8.70;5.80;;;;;;;14.99;85.92;98852.36;107847;1257;72561;-73
2023/10/27 07:29:09;;;;;;;7.80;6.10;;;;;;;15.08;85.89;98856.83;107735;1258;72793;-72
2023/10/27 07:31:37;;;;;;;8.80;6.80;;;;;;;15.19;85.79;98864.17;107827;1257;61151;-72
2023/10/27 07:34:05;;;;;;;8.00;6.00;;;;;;;15.29;85.28;98864.23;107723;1257;61093;-70
2023/10/27 07:36:32;;;;;;;8.90;6.40;;;;;;;15.36;84.66;98866.00;107841;1257;74062;-74
2023/10/27 07:38:59;;;;;;;7.20;5.90;;;;;;;15.42;84.15;98865.98;107757;1258;73082;-72
2023/10/27 07:41:26;;;;;;;7.40;5.80;;;;;;;15.46;83.39;98867.97;107778;1262;72533;-73
2023/10/27 07:43:53;;;;;;;8.40;6.60;;;;;;;15.51;83.22;98871.46;107799;1261;61144;-73
2023/10/27 07:46:20;;;;;;;8.50;5.70;;;;;;;15.60;82.87;98870.08;107855;1257;61148;-73
2023/10/27 07:48:47;;;;;;;8.90;6.50;;;;;;;15.67;82.56;98872.29;107780;1259;74436;-74
2023/10/27 07:51:15;;;;;;;7.10;6.10;;;;;;;15.75;81.93;98869.77;107812;1257;72799;-74
2023/10/27 07:53:42;;;;;;;7.80;5.90;;;;;;;15.81;81.69;98875.36;107767;1257;73747;-73
2023/10/27 07:56:11;;;;;;;8.20;6.40;;;;;;;15.88;81.07;98874.77;107744;1262;61162;-74
2023/10/27 07:58:38;;;;;;;9.00;5.70;;;;;;;15.98;80.81;98877.78;107806;1257;61161;-74
2023/10/27 08:01:05;;;;;;;7.20;5.60;;;;;;;16.09;80.61;98880.48;107727;1259;73492;-73
2023/10/27 08:03:33;;;;;;;7.10;5.80;;;;;;;16.20;80.23;98883.43;107761;1259;73917;-72
2023/10/27 08:06:02;;;;;;;8.10;5.60;;;;;;;16.26;79.56;98876.16;107734;1259;73839;-73
2023/10/27 08:08:29;;;;;;;6.40;5.70;;;;;;;16.37;79.30;98875.59;107583;1257;61912;-73
2023/10/27 08:10:56;;;;;;;7.10;5.40;;;;;;;16.46;78.83;98868.17;107778;1257;61280;-74
2023/10/27 08:13:23;;;;;;;7.20;5.20;;;;;;;16.52;78.29;98866.00;107852;1257;73344;-73
2023/10/27 08:15:50;;;;;;;7.60;5.50;;;;;;;16.60;77.88;98863.07;107831;1257;71132;-71
2023/10/27 08:18:17;;;;;;;8.60;5.10;;;;;;;16.65;77.28;98862.08;107608;1259;71562;-73
2023/10/27 08:20:44;;;;;;;7.40;5.20;;;;;;;16.72;76.76;98858.25;107767;1260;61197;-71
2023/10/27 08:23:11;;;;;;;7.00;4.40;;;;;;;16.79;76.30;98860.38;107774;1259;61459;-73
2023/10/27 08:25:38;;;;;;;7.20;4.80;;;;;;;16.86;75.95;98865.81;107775;1258;74137;-71
2023/10/27 08:28:06;;;;;;;8.20;4.90;;;;;;;16.89;75.51;98874.08;107616;1259;72843;-73
2023/10/27 08:30:33;;;;;;;7.00;4.70;;;;;;;16.93;75.27;98880.59;107838;1259;72658;-73
2023/10/27 08:33:00;;;;;;;6.00;4.20;;;;;;;16.98;75.07;98881.35;107791;1258;62470;-73
2023/10/27 08:35:27;;;;;;;6.20;4.90;;;;;;;17.01;74.93;98879.98;107834;1257;61379;-74
2023/10/27 08:37:54;;;;;;;9.90;5.30;;;;;;;17.05;74.66;98881.92;107899;1257;75961;-74
2023/10/27 08:40:21;;;;;;;8.90;5.50;;;;;;;17.10;74.46;98883.48;107681;1259;71881;-74
2023/10/27 08:42:49;;;;;;;8.60;5.30;;;;;;;17.16;74.34;98882.50;107723;1257;72781;-72
2023/10/27 08:45:16;;;;;;;7.00;5.20;;;;;;;17.25;74.15;98886.61;107741;1257;61916;-72
2023/10/27 08:47:42;;;;;;;7.20;5.30;;;;;;;17.34;73.87;98890.63;107667;1260;61283;-73
2023/10/27 08:50:10;;;;;;;8.00;5.30;;;;;;;17.41;73.49;98886.06;107763;1259;73151;-73
2023/10/27 08:52:37;;;;;;;7.60;5.40;;;;;;;17.45;72.74;98889.80;107741;1258;72664;-73
2023/10/27 08:55:08;;;;;;;9.70;5.80;;;;;;;17.49;72.65;98891.08;107586;1259;72868;-74
2023/10/27 08:57:35;;;;;;;7.50;4.70;;;;;;;17.60;72.47;98891.98;107725;1259;61760;-71
2023/10/27 09:00:05;;;;;;;8.30;5.20;;;;;;;17.70;72.24;98892.30;107733;1258;61165;-72
2023/10/27 09:02:34;;;;;;;6.40;5.10;;;;;;;17.69;70.58;98887.75;107639;1259;74485;-73
2023/10/27 09:05:05;;;;;;;9.10;5.40;;;;;;;17.57;69.98;98882.65;107712;1259;72853;-71
2023/10/27 09:07:33;;;;;;;7.70;4.80;;;;;;;17.54;70.19;98874.48;107813;1257;72548;-73
2023/10/27 09:10:00;;;;;;;8.90;4.90;;;;;;;17.56;70.05;98869.83;107836;1257;61016;-73
2023/10/27 09:12:30;;;;;;;7.90;4.20;;;;;;;17.60;69.92;98872.84;107727;1257;61142;-72
2023/10/27 09:15:05;;;;;;;5.50;4.00;;;;;;;17.66;69.95;98875.70;107804;1260;74786;-72
2023/10/27 09:17:57;;;;;;;7.70;5.20;;;;;;;17.70;69.29;98881.91;107894;1259;72749;-72
2023/10/27 09:20:24;;;;;;;;;;;;;;;17.66;68.66;98881.10;107760;1259;72350;-72
2023/10/27 09:22:58;;;;;;;5.00;3.90;;;;;;;17.53;67.78;98877.82;107715;1257;61779;-72
2023/10/27 09:25:34;;;;;;;6.90;4.00;;;;;;;17.38;67.41;98881.13;107697;1259;61274;-72
2023/10/27 09:28:05;;;;;;;6.70;4.00;;;;;;;17.29;67.49;98874.23;107701;1259;74623;-71
2023/10/27 09:30:39;;;;;;;7.00;4.30;;;;;;;17.21;67.57;98876.16;107717;1258;72878;-72
2023/10/27 09:33:23;;;;;;;7.10;4.50;;;;;;;17.13;67.56;98874.16;107606;1259;73764;-72
2023/10/27 09:35:54;;;;;;;6.80;4.10;;;;;;;17.07;67.87;98869.30;107701;1259;61908;-72
2023/10/27 09:38:22;;;;;;;5.60;4.10;;;;;;;17.08;68.30;98868.48;107750;1258;60416;-73
2023/10/27 09:40:49;;;;;;;8.00;4.40;;;;;;;17.17;68.64;98859.31;107632;1259;74719;-72
2023/10/27 09:43:20;;;;;;;6.80;4.50;;;;;;;17.29;68.76;98853.66;107736;1257;72875;-73
2023/10/27 09:45:54;;;;;;;5.40;3.90;;;;;;;17.43;68.67;98856.48;107725;1257;72714;-74
2023/10/27 09:48:27;;;;;;;7.60;4.80;;;;;;;17.57;68.02;98857.18;107817;1257;61821;-71
2023/10/27 09:51:02;;;;;;;6.60;5.00;;;;;;;17.70;68.08;98854.83;107950;1257;60065;-72
2023/10/27 09:53:30;;;;;;;6.80;4.80;;;;;;;17.79;67.37;98850.45;107755;1258;74531;-73
2023/10/27 09:55:57;;;;;;;7.20;4.80;;;;;;;17.81;66.53;98844.28;107781;1258;72680;-72
2023/10/27 09:58:30;;;;;;;7.70;4.60;;;;;;;17.82;66.30;98840.59;107783;1257;71927;-72
2023/10/27 10:00:57;;;;;;;6.70;4.20;;;;;;;17.90;66.58;98837.40;107675;1258;61330;-73
2023/10/27 10:03:27;;;;;;;6.70;4.00;;;;;;;18.03;66.53;98839.64;107624;1259;61254;-73
2023/10/27 10:06:15;;;;;;;5.50;4.10;;;;;;;18.18;66.18;98834.14;107620;1257;74690;-72
2023/10/27 10:09:05;;;;;;;6.50;3.80;;;;;;;18.31;65.23;98828.67;107818;1259;72826;-72
2023/10/27 10:11:55;;;;;;;6.80;4.00;;;;;;;18.43;64.80;98821.53;107791;1258;71481;-73
2023/10/27 10:14:48;;;;;;;6.50;4.30;;;;;;;18.57;64.48;98821.91;107670;1259;61331;-72
2023/10/27 10:17:40;;;;;;;6.40;3.50;;;;;;;18.66;63.13;98815.16;107770;1257;61110;-72
2023/10/27 10:20:09;;;;;;;;;;;;;;;18.69;61.63;98812.91;107751;1259;74773;-73
2023/10/27 10:22:40;;;;;;;5.20;3.70;;;;;;;18.69;61.04;98803.88;107706;1259;71490;-72
2023/10/27 10:25:19;;;;;;;5.20;3.40;;;;;;;18.76;61.37;98801.05;107698;1257;72034;-72
2023/10/27 10:28:16;;;;;;;5.50;3.30;;;;;;;18.87;60.11;98800.48;107798;1258;61940;-73
2023/10/27 10:30:44;;;;;;;6.20;3.10;;;;;;;18.93;58.36;98791.89;107741;1257;61106;-72
2023/10/27 10:33:16;;;;;;;5.20;3.20;;;;;;;18.99;58.21;98788.98;107780;1257;75566;-72
2023/10/27 10:35:44;;;;;;;5.70;3.70;;;;;;;19.07;58.28;98789.52;107772;1257;71796;-71
2023/10/27 10:38:23;;;;;;;4.80;3.70;;;;;;;19.13;58.05;98787.25;107766;1261;72691;-71
2023/10/27 10:40:53;;;;;;;5.60;4.00;;;;;;;19.19;57.90;98789.53;107750;1257;61262;-72
2023/10/27 10:43:30;;;;;;;5.90;3.70;;;;;;;19.19;57.17;98787.84;107770;1262;61345;-71
2023/10/27 10:46:00;;;;;;;5.40;3.50;;;;;;;19.16;56.91;98787.00;107642;1263;73438;-71
2023/10/27 10:48:28;;;;;;;4.10;3.10;;;;;;;19.17;57.13;98791.27;107858;1259;73230;-72
2023/10/27 10:50:59;;;;;;;4.80;3.20;;;;;;;19.24;57.17;98790.85;107746;1259;70552;-73
2023/10/27 10:53:26;;;;;;;5.00;3.20;;;;;;;19.28;56.44;98787.14;107742;1259;61248;-73
2023/10/27 10:56:00;;;;;;;4.40;2.80;;;;;;;19.30;56.27;98786.80;107729;1259;61138;-72
2023/10/27 10:58:28;;;;;;;5.50;3.10;;;;;;;19.30;55.77;98785.48;107682;1259;74631;-72
2023/10/27 11:00:56;;;;;;;5.00;3.20;;;;;;;19.29;55.75;98786.26;107832;1260;72921;-71
2023/10/27 11:03:25;;;;;;;4.80;3.10;;;;;;;19.29;55.92;98782.61;107881;1257;72639;-72
2023/10/27 11:05:55;;;;;;;4.10;2.60;;;;;;;19.33;56.34;98779.67;107767;1257;61884;-72
2023/10/27 11:08:30;;;;;;;6.80;3.30;;;;;;;19.38;56.52;98776.98;107572;1257;61248;-71
2023/10/27 11:14:40;;;;;;;4.10;2.70;;;;;;;19.40;56.27;98773.60;107747;1259;73716;-72
2023/10/27 11:17:11;;;;;;;6.20;3.50;;;;;;;19.40;55.82;98774.91;107844;1257;71224;-72
2023/10/27 11:19:51;;;;;;;6.20;3.90;;;;;;;19.38;56.10;98773.40;107780;1257;61233;-71
2023/10/27 11:22:22;;;;;;;4.90;3.10;;;;;;;19.38;56.31;98774.51;107811;1257;61197;-72
2023/10/27 11:24:49;;;;;;;5.10;3.10;;;;;;;19.40;56.36;98774.55;107831;1257;73739;-72
2023/10/27 11:27:24;;;;;;;4.40;3.00;;;;;;;19.45;56.14;98775.86;107813;1259;72672;-72
2023/10/27 11:30:00;;;;;;;4.70;2.40;;;;;;;19.49;55.98;98770.90;107805;1258;72697;-72
2023/10/27 11:32:28;;;;;;;4.60;2.60;;;;;;;19.52;56.04;98765.84;107842;1257;61148;-73
2023/10/27 11:34:56;;;;;;;3.50;2.40;;;;;;;19.57;55.91;98761.61;107845;1257;61244;-71
2023/10/27 11:37:25;;;;;;;3.10;2.50;;;;;;;19.70;56.09;98760.84;107885;1257;74599;-73
2023/10/27 11:39:52;;;;;;;6.10;2.70;;;;;;;19.83;54.82;98762.31;107832;1257;72626;-72